Skip Navigation Links Skip Navigation Links

Current Weather

Chicago O'Hare Intl, Chicago

For information only: do not use for flight planning or navigation.
Latest weather
Observation time Friday, April 3, 2020 11:51 AM CDT
Local time Friday, April 3, 2020 12:32 PM CDT
Flight conditions Visual Meteorological Conditions
Winds
Wind direction variable
Wind speed 5 mph
Visibility 10 mi.
Sky condition
Ceiling 10,000 ft. broken clouds
Cloud layer broken clouds 10,000 ft.
Cloud layer broken clouds 20,000 ft.
Temperature 64°F
Dewpoint 42°F
Altimeter 30.05 in.Hg
Derived measurements
Relative humidity 45%
Density altitude 984 ft.
Sea-level pressure 30.06 in.Hg
Remarks
Automated weather observing station with precipitation discriminator.
METAR KORD 031651Z VRB04KT 10SM BKN100 BKN200 18/06 A3005 RMK AO2 SLP178 T01780056

Settings

Location code

InnerDrive.Weather 4.0.6770.0 Release CLR 4.0.30319.42000
Copyright ©2018 Inner Drive Technology. All rights reserved. Portions Copyright ©1986-2018 David Braverman.

Find weather

Site navigation


Skip Navigation Links

Place info

Page info

PayPal - The safer, easier way to pay online!

Return home.

Copyright ©2020 Inner Drive Technology. Purveyors of fine, hand-crafted computer software. Page printed 2020-04-03T17:32:14 UTC.